Windham, New Hampshire
Current Conditions -  °F | °C
As of 1:54 AM on Saturday 20 Dec 2014 (Local Time) from KLWM Reporting Station
Clear Clear  
Wind Chill: -8°   Ceiling: Unl
Heat Index: -4°   Visibility: 10mi
Dew Point: -7°   Wind: 6mph
Humidity: 78%   Direction: 350°N
Pressure: 30.2"   Gusts: NA
Location:  42.8°N, 71.3°W
Report Text: KLWM 200654Z 35005KT 10SM CLR M04/M07 A3020 RMK AO2 SLP227 T10391072
Loading
Personal Weather Stations






























Interactive Weather Map New forecast layout! Learn more

10-Day Weather Forecast

Advertisements
Track Severe Weather on mobile